sensor_id;sensor_type;location;lat;lon;timestamp;P1;durP1;ratioP1;P2;durP2;ratioP2
3597;SDS011;1813;52.016;8.714;2023-11-19T00:02:38;3.10;;;3.00;;
3597;SDS011;1813;52.016;8.714;2023-11-19T00:05:12;2.83;;;2.73;;
3597;SDS011;1813;52.016;8.714;2023-11-19T00:07:45;2.20;;;2.10;;
3597;SDS011;1813;52.016;8.714;2023-11-19T00:10:19;2.40;;;2.30;;
3597;SDS011;1813;52.016;8.714;2023-11-19T00:12:53;2.50;;;2.33;;
3597;SDS011;1813;52.016;8.714;2023-11-19T00:15:29;2.40;;;2.30;;
3597;SDS011;1813;52.016;8.714;2023-11-19T00:18:03;2.90;;;2.60;;
3597;SDS011;1813;52.016;8.714;2023-11-19T00:20:37;1.80;;;1.80;;
3597;SDS011;1813;52.016;8.714;2023-11-19T00:23:10;1.73;;;1.73;;
3597;SDS011;1813;52.016;8.714;2023-11-19T00:25:44;2.13;;;2.00;;
3597;SDS011;1813;52.016;8.714;2023-11-19T00:28:18;2.50;;;2.40;;
3597;SDS011;1813;52.016;8.714;2023-11-19T00:30:54;3.10;;;3.00;;
3597;SDS011;1813;52.016;8.714;2023-11-19T00:33:28;3.20;;;3.10;;
3597;SDS011;1813;52.016;8.714;2023-11-19T00:36:01;3.33;;;3.23;;
3597;SDS011;1813;52.016;8.714;2023-11-19T00:38:35;3.07;;;2.97;;
3597;SDS011;1813;52.016;8.714;2023-11-19T00:41:08;2.83;;;2.73;;
3597;SDS011;1813;52.016;8.714;2023-11-19T00:43:42;2.90;;;2.80;;
3597;SDS011;1813;52.016;8.714;2023-11-19T00:46:18;2.80;;;2.70;;
3597;SDS011;1813;52.016;8.714;2023-11-19T00:48:51;2.70;;;2.60;;
3597;SDS011;1813;52.016;8.714;2023-11-19T00:51:25;2.80;;;2.70;;
3597;SDS011;1813;52.016;8.714;2023-11-19T00:53:58;3.43;;;3.27;;
3597;SDS011;1813;52.016;8.714;2023-11-19T00:56:32;3.60;;;3.40;;
3597;SDS011;1813;52.016;8.714;2023-11-19T00:59:06;4.90;;;3.63;;
3597;SDS011;1813;52.016;8.714;2023-11-19T01:01:42;3.63;;;3.47;;
3597;SDS011;1813;52.016;8.714;2023-11-19T01:04:15;4.27;;;4.07;;
3597;SDS011;1813;52.016;8.714;2023-11-19T01:06:49;4.70;;;4.40;;
3597;SDS011;1813;52.016;8.714;2023-11-19T01:09:22;4.43;;;4.23;;
3597;SDS011;1813;52.016;8.714;2023-11-19T01:11:57;4.50;;;4.20;;
3597;SDS011;1813;52.016;8.714;2023-11-19T01:14:31;3.67;;;3.47;;
3597;SDS011;1813;52.016;8.714;2023-11-19T01:17:07;2.77;;;2.67;;
3597;SDS011;1813;52.016;8.714;2023-11-19T01:19:41;3.00;;;2.80;;
3597;SDS011;1813;52.016;8.714;2023-11-19T01:22:15;2.90;;;2.70;;
3597;SDS011;1813;52.016;8.714;2023-11-19T01:24:49;2.47;;;2.37;;
3597;SDS011;1813;52.016;8.714;2023-11-19T01:27:24;2.60;;;2.50;;
3597;SDS011;1813;52.016;8.714;2023-11-19T01:29:57;2.80;;;2.60;;
3597;SDS011;1813;52.016;8.714;2023-11-19T01:32:34;2.83;;;2.73;;
3597;SDS011;1813;52.016;8.714;2023-11-19T01:35:08;3.90;;;3.70;;
3597;SDS011;1813;52.016;8.714;2023-11-19T01:37:41;4.37;;;4.07;;
3597;SDS011;1813;52.016;8.714;2023-11-19T01:40:15;4.80;;;4.50;;
3597;SDS011;1813;52.016;8.714;2023-11-19T01:42:53;5.17;;;4.77;;
3597;SDS011;1813;52.016;8.714;2023-11-19T01:45:27;5.60;;;5.20;;
3597;SDS011;1813;52.016;8.714;2023-11-19T01:48:05;6.03;;;5.60;;
3597;SDS011;1813;52.016;8.714;2023-11-19T01:50:41;5.60;;;5.20;;
3597;SDS011;1813;52.016;8.714;2023-11-19T01:53:15;5.40;;;4.90;;
3597;SDS011;1813;52.016;8.714;2023-11-19T01:55:48;5.90;;;5.50;;
3597;SDS011;1813;52.016;8.714;2023-11-19T01:58:23;6.17;;;5.70;;
3597;SDS011;1813;52.016;8.714;2023-11-19T02:00:57;6.40;;;5.33;;
3597;SDS011;1813;52.016;8.714;2023-11-19T02:03:33;5.50;;;5.10;;
3597;SDS011;1813;52.016;8.714;2023-11-19T02:06:07;4.80;;;4.50;;
3597;SDS011;1813;52.016;8.714;2023-11-19T02:08:43;3.97;;;3.77;;
3597;SDS011;1813;52.016;8.714;2023-11-19T02:11:17;4.47;;;4.10;;
3597;SDS011;1813;52.016;8.714;2023-11-19T02:13:50;3.90;;;3.70;;
3597;SDS011;1813;52.016;8.714;2023-11-19T02:16:24;3.77;;;3.57;;
3597;SDS011;1813;52.016;8.714;2023-11-19T02:19:00;4.07;;;3.87;;
3597;SDS011;1813;52.016;8.714;2023-11-19T02:21:36;4.83;;;4.53;;
3597;SDS011;1813;52.016;8.714;2023-11-19T02:24:10;8.20;;;4.90;;
3597;SDS011;1813;52.016;8.714;2023-11-19T02:26:49;5.63;;;4.90;;
3597;SDS011;1813;52.016;8.714;2023-11-19T02:29:33;4.87;;;4.47;;
3597;SDS011;1813;52.016;8.714;2023-11-19T02:32:07;5.10;;;4.80;;
3597;SDS011;1813;52.016;8.714;2023-11-19T02:34:43;6.10;;;5.60;;
3597;SDS011;1813;52.016;8.714;2023-11-19T02:37:17;6.63;;;6.10;;
3597;SDS011;1813;52.016;8.714;2023-11-19T02:39:50;8.63;;;7.00;;
3597;SDS011;1813;52.016;8.714;2023-11-19T02:42:24;11.27;;;8.10;;
3597;SDS011;1813;52.016;8.714;2023-11-19T02:45:00;9.47;;;8.50;;
3597;SDS011;1813;52.016;8.714;2023-11-19T02:47:36;9.67;;;8.67;;
3597;SDS011;1813;52.016;8.714;2023-11-19T02:50:09;9.93;;;8.93;;
3597;SDS011;1813;52.016;8.714;2023-11-19T02:52:45;10.47;;;8.37;;
3597;SDS011;1813;52.016;8.714;2023-11-19T02:55:21;11.80;;;9.93;;
3597;SDS011;1813;52.016;8.714;2023-11-19T02:57:54;13.67;;;10.80;;
3597;SDS011;1813;52.016;8.714;2023-11-19T03:00:32;12.40;;;10.40;;
3597;SDS011;1813;52.016;8.714;2023-11-19T03:03:08;10.83;;;9.77;;
3597;SDS011;1813;52.016;8.714;2023-11-19T03:05:50;14.03;;;11.40;;
3597;SDS011;1813;52.016;8.714;2023-11-19T03:08:23;13.20;;;11.03;;
3597;SDS011;1813;52.016;8.714;2023-11-19T03:10:57;13.10;;;11.47;;
3597;SDS011;1813;52.016;8.714;2023-11-19T03:13:31;19.00;;;12.00;;
3597;SDS011;1813;52.016;8.714;2023-11-19T03:16:07;20.00;;;13.50;;
3597;SDS011;1813;52.016;8.714;2023-11-19T03:18:41;15.27;;;12.50;;
3597;SDS011;1813;52.016;8.714;2023-11-19T03:21:15;16.77;;;12.80;;
3597;SDS011;1813;52.016;8.714;2023-11-19T03:23:49;21.30;;;14.53;;
3597;SDS011;1813;52.016;8.714;2023-11-19T03:26:22;21.33;;;14.50;;
3597;SDS011;1813;52.016;8.714;2023-11-19T03:28:56;21.70;;;15.57;;
3597;SDS011;1813;52.016;8.714;2023-11-19T03:31:32;19.50;;;15.63;;
3597;SDS011;1813;52.016;8.714;2023-11-19T03:34:05;20.60;;;15.33;;
3597;SDS011;1813;52.016;8.714;2023-11-19T03:36:39;25.93;;;16.70;;
3597;SDS011;1813;52.016;8.714;2023-11-19T03:39:15;22.13;;;16.43;;
3597;SDS011;1813;52.016;8.714;2023-11-19T03:41:48;25.27;;;18.07;;
3597;SDS011;1813;52.016;8.714;2023-11-19T03:44:19;24.67;;;18.33;;
3597;SDS011;1813;52.016;8.714;2023-11-19T03:46:55;23.97;;;18.00;;
3597;SDS011;1813;52.016;8.714;2023-11-19T03:49:28;25.70;;;18.00;;
3597;SDS011;1813;52.016;8.714;2023-11-19T03:52:02;21.33;;;18.37;;
3597;SDS011;1813;52.016;8.714;2023-11-19T03:54:36;24.83;;;17.77;;
3597;SDS011;1813;52.016;8.714;2023-11-19T03:57:10;22.80;;;17.63;;
3597;SDS011;1813;52.016;8.714;2023-11-19T03:59:43;23.13;;;17.50;;
3597;SDS011;1813;52.016;8.714;2023-11-19T04:02:19;22.00;;;16.37;;
3597;SDS011;1813;52.016;8.714;2023-11-19T04:04:54;23.30;;;16.07;;
3597;SDS011;1813;52.016;8.714;2023-11-19T04:07:29;21.30;;;15.83;;
3597;SDS011;1813;52.016;8.714;2023-11-19T04:10:02;18.13;;;14.43;;
3597;SDS011;1813;52.016;8.714;2023-11-19T04:12:36;19.97;;;15.10;;
3597;SDS011;1813;52.016;8.714;2023-11-19T04:15:10;18.77;;;14.80;;
3597;SDS011;1813;52.016;8.714;2023-11-19T04:17:47;22.40;;;16.03;;
3597;SDS011;1813;52.016;8.714;2023-11-19T04:20:20;24.27;;;15.30;;
3597;SDS011;1813;52.016;8.714;2023-11-19T04:22:54;21.00;;;14.70;;
3597;SDS011;1813;52.016;8.714;2023-11-19T04:25:27;22.07;;;14.23;;
3597;SDS011;1813;52.016;8.714;2023-11-19T04:28:00;21.87;;;14.40;;
3597;SDS011;1813;52.016;8.714;2023-11-19T04:30:34;21.30;;;14.10;;
3597;SDS011;1813;52.016;8.714;2023-11-19T04:33:10;24.30;;;13.90;;
3597;SDS011;1813;52.016;8.714;2023-11-19T04:35:45;23.00;;;13.93;;
3597;SDS011;1813;52.016;8.714;2023-11-19T04:38:18;19.97;;;13.20;;
3597;SDS011;1813;52.016;8.714;2023-11-19T04:40:52;19.90;;;12.80;;
3597;SDS011;1813;52.016;8.714;2023-11-19T04:43:27;19.33;;;12.97;;
3597;SDS011;1813;52.016;8.714;2023-11-19T04:46:03;23.57;;;12.30;;
3597;SDS011;1813;52.016;8.714;2023-11-19T04:48:39;18.77;;;11.97;;
3597;SDS011;1813;52.016;8.714;2023-11-19T04:51:12;22.13;;;11.70;;
3597;SDS011;1813;52.016;8.714;2023-11-19T04:53:46;16.07;;;11.00;;
3597;SDS011;1813;52.016;8.714;2023-11-19T04:56:19;22.70;;;11.03;;
3597;SDS011;1813;52.016;8.714;2023-11-19T04:58:53;18.90;;;9.60;;
3597;SDS011;1813;52.016;8.714;2023-11-19T05:01:26;18.87;;;8.13;;
3597;SDS011;1813;52.016;8.714;2023-11-19T05:04:02;24.43;;;7.77;;
3597;SDS011;1813;52.016;8.714;2023-11-19T05:06:36;15.07;;;7.60;;
3597;SDS011;1813;52.016;8.714;2023-11-19T05:09:10;25.43;;;7.17;;
3597;SDS011;1813;52.016;8.714;2023-11-19T05:11:43;15.93;;;7.23;;
3597;SDS011;1813;52.016;8.714;2023-11-19T05:14:17;16.20;;;6.43;;
3597;SDS011;1813;52.016;8.714;2023-11-19T05:16:52;23.13;;;7.33;;
3597;SDS011;1813;52.016;8.714;2023-11-19T05:19:28;14.83;;;6.60;;
3597;SDS011;1813;52.016;8.714;2023-11-19T05:22:01;22.63;;;7.83;;
3597;SDS011;1813;52.016;8.714;2023-11-19T05:24:34;18.50;;;6.80;;
3597;SDS011;1813;52.016;8.714;2023-11-19T05:27:09;24.43;;;7.10;;
3597;SDS011;1813;52.016;8.714;2023-11-19T05:29:43;19.03;;;6.27;;
3597;SDS011;1813;52.016;8.714;2023-11-19T05:32:17;20.10;;;5.80;;
3597;SDS011;1813;52.016;8.714;2023-11-19T05:34:53;18.57;;;5.97;;
3597;SDS011;1813;52.016;8.714;2023-11-19T05:37:27;32.60;;;6.40;;
3597;SDS011;1813;52.016;8.714;2023-11-19T05:40:00;19.33;;;6.00;;
3597;SDS011;1813;52.016;8.714;2023-11-19T05:42:34;23.67;;;5.60;;
3597;SDS011;1813;52.016;8.714;2023-11-19T05:45:11;19.37;;;5.60;;
3597;SDS011;1813;52.016;8.714;2023-11-19T05:47:45;23.57;;;6.03;;
3597;SDS011;1813;52.016;8.714;2023-11-19T05:50:21;22.00;;;6.00;;
3597;SDS011;1813;52.016;8.714;2023-11-19T05:52:54;16.30;;;5.13;;
3597;SDS011;1813;52.016;8.714;2023-11-19T05:55:28;20.43;;;5.53;;
3597;SDS011;1813;52.016;8.714;2023-11-19T05:58:01;19.73;;;4.80;;
3597;SDS011;1813;52.016;8.714;2023-11-19T06:00:37;25.97;;;6.40;;
3597;SDS011;1813;52.016;8.714;2023-11-19T06:03:10;20.83;;;5.70;;
3597;SDS011;1813;52.016;8.714;2023-11-19T06:05:46;18.57;;;5.30;;
3597;SDS011;1813;52.016;8.714;2023-11-19T06:08:20;21.00;;;6.03;;
3597;SDS011;1813;52.016;8.714;2023-11-19T06:10:54;18.40;;;6.27;;
3597;SDS011;1813;52.016;8.714;2023-11-19T06:13:27;22.20;;;6.60;;
3597;SDS011;1813;52.016;8.714;2023-11-19T06:16:01;21.03;;;6.33;;
3597;SDS011;1813;52.016;8.714;2023-11-19T06:18:34;25.20;;;6.70;;
3597;SDS011;1813;52.016;8.714;2023-11-19T06:21:12;17.73;;;5.73;;
3597;SDS011;1813;52.016;8.714;2023-11-19T06:23:46;20.03;;;6.20;;
3597;SDS011;1813;52.016;8.714;2023-11-19T06:26:21;23.17;;;6.20;;
3597;SDS011;1813;52.016;8.714;2023-11-19T06:28:55;28.33;;;7.27;;
3597;SDS011;1813;52.016;8.714;2023-11-19T06:31:28;26.67;;;6.37;;
3597;SDS011;1813;52.016;8.714;2023-11-19T06:34:02;23.37;;;6.00;;
3597;SDS011;1813;52.016;8.714;2023-11-19T06:36:38;26.87;;;6.73;;
3597;SDS011;1813;52.016;8.714;2023-11-19T06:39:13;23.10;;;6.20;;
3597;SDS011;1813;52.016;8.714;2023-11-19T06:41:48;26.37;;;6.43;;
3597;SDS011;1813;52.016;8.714;2023-11-19T06:44:21;23.93;;;6.57;;
3597;SDS011;1813;52.016;8.714;2023-11-19T06:46:55;29.53;;;6.87;;
3597;SDS011;1813;52.016;8.714;2023-11-19T06:49:28;26.33;;;6.40;;
3597;SDS011;1813;52.016;8.714;2023-11-19T06:52:04;21.73;;;6.77;;
3597;SDS011;1813;52.016;8.714;2023-11-19T06:54:38;21.90;;;6.30;;
3597;SDS011;1813;52.016;8.714;2023-11-19T06:57:12;22.50;;;6.40;;
3597;SDS011;1813;52.016;8.714;2023-11-19T06:59:45;20.07;;;5.73;;
3597;SDS011;1813;52.016;8.714;2023-11-19T07:02:19;31.97;;;6.97;;
3597;SDS011;1813;52.016;8.714;2023-11-19T07:04:52;21.67;;;6.07;;
3597;SDS011;1813;52.016;8.714;2023-11-19T07:07:28;29.30;;;6.20;;
3597;SDS011;1813;52.016;8.714;2023-11-19T07:10:03;36.70;;;6.57;;
3597;SDS011;1813;52.016;8.714;2023-11-19T07:12:39;29.20;;;7.03;;
3597;SDS011;1813;52.016;8.714;2023-11-19T07:15:13;23.20;;;5.23;;
3597;SDS011;1813;52.016;8.714;2023-11-19T07:17:47;24.50;;;6.30;;
3597;SDS011;1813;52.016;8.714;2023-11-19T07:20:21;28.10;;;5.83;;
3597;SDS011;1813;52.016;8.714;2023-11-19T07:22:57;29.17;;;6.40;;
3597;SDS011;1813;52.016;8.714;2023-11-19T07:25:30;34.03;;;6.27;;
3597;SDS011;1813;52.016;8.714;2023-11-19T07:28:05;23.00;;;5.97;;
3597;SDS011;1813;52.016;8.714;2023-11-19T07:30:40;29.20;;;6.13;;
3597;SDS011;1813;52.016;8.714;2023-11-19T07:33:13;29.67;;;6.40;;
3597;SDS011;1813;52.016;8.714;2023-11-19T07:35:47;28.20;;;6.67;;
3597;SDS011;1813;52.016;8.714;2023-11-19T07:38:23;36.30;;;7.30;;
3597;SDS011;1813;52.016;8.714;2023-11-19T07:40:57;27.30;;;5.53;;
3597;SDS011;1813;52.016;8.714;2023-11-19T07:43:30;32.27;;;5.70;;
3597;SDS011;1813;52.016;8.714;2023-11-19T07:46:04;31.73;;;6.20;;
3597;SDS011;1813;52.016;8.714;2023-11-19T07:48:38;34.20;;;6.50;;
3597;SDS011;1813;52.016;8.714;2023-11-19T07:51:12;35.07;;;6.57;;
3597;SDS011;1813;52.016;8.714;2023-11-19T07:53:49;39.30;;;7.13;;
3597;SDS011;1813;52.016;8.714;2023-11-19T07:56:22;27.30;;;6.20;;
3597;SDS011;1813;52.016;8.714;2023-11-19T07:58:55;40.40;;;7.40;;
3597;SDS011;1813;52.016;8.714;2023-11-19T08:01:29;28.57;;;6.30;;
3597;SDS011;1813;52.016;8.714;2023-11-19T08:04:03;37.20;;;6.70;;
3597;SDS011;1813;52.016;8.714;2023-11-19T08:06:36;33.70;;;7.50;;
3597;SDS011;1813;52.016;8.714;2023-11-19T08:09:12;29.10;;;6.93;;
3597;SDS011;1813;52.016;8.714;2023-11-19T08:11:46;45.13;;;7.83;;
3597;SDS011;1813;52.016;8.714;2023-11-19T08:14:20;32.23;;;6.43;;
3597;SDS011;1813;52.016;8.714;2023-11-19T08:16:54;29.67;;;6.53;;
3597;SDS011;1813;52.016;8.714;2023-11-19T08:19:27;34.00;;;7.30;;
3597;SDS011;1813;52.016;8.714;2023-11-19T08:22:01;40.73;;;7.50;;
3597;SDS011;1813;52.016;8.714;2023-11-19T08:24:37;31.27;;;6.60;;
3597;SDS011;1813;52.016;8.714;2023-11-19T08:27:10;29.17;;;6.57;;
3597;SDS011;1813;52.016;8.714;2023-11-19T08:29:44;33.97;;;7.13;;
3597;SDS011;1813;52.016;8.714;2023-11-19T08:32:17;36.67;;;7.80;;
3597;SDS011;1813;52.016;8.714;2023-11-19T08:34:51;33.47;;;6.43;;
3597;SDS011;1813;52.016;8.714;2023-11-19T08:37:25;39.10;;;6.93;;
3597;SDS011;1813;52.016;8.714;2023-11-19T08:40:01;33.40;;;7.00;;
3597;SDS011;1813;52.016;8.714;2023-11-19T08:42:34;44.83;;;6.20;;
3597;SDS011;1813;52.016;8.714;2023-11-19T08:45:09;32.23;;;6.80;;
3597;SDS011;1813;52.016;8.714;2023-11-19T08:47:43;37.20;;;7.30;;
3597;SDS011;1813;52.016;8.714;2023-11-19T08:50:16;29.07;;;6.70;;
3597;SDS011;1813;52.016;8.714;2023-11-19T08:52:50;32.00;;;6.63;;
3597;SDS011;1813;52.016;8.714;2023-11-19T08:55:26;26.17;;;6.10;;
3597;SDS011;1813;52.016;8.714;2023-11-19T08:57:59;35.37;;;6.83;;
3597;SDS011;1813;52.016;8.714;2023-11-19T09:00:33;28.23;;;7.07;;
3597;SDS011;1813;52.016;8.714;2023-11-19T09:03:06;32.87;;;7.40;;
3597;SDS011;1813;52.016;8.714;2023-11-19T09:05:39;32.47;;;7.13;;
3597;SDS011;1813;52.016;8.714;2023-11-19T09:08:13;34.37;;;6.53;;
3597;SDS011;1813;52.016;8.714;2023-11-19T09:10:49;35.17;;;7.40;;
3597;SDS011;1813;52.016;8.714;2023-11-19T09:13:23;34.50;;;7.13;;
3597;SDS011;1813;52.016;8.714;2023-11-19T09:15:56;31.73;;;7.40;;
3597;SDS011;1813;52.016;8.714;2023-11-19T09:18:33;30.60;;;6.73;;
3597;SDS011;1813;52.016;8.714;2023-11-19T09:21:07;34.10;;;7.50;;
3597;SDS011;1813;52.016;8.714;2023-11-19T09:23:40;22.93;;;6.70;;
3597;SDS011;1813;52.016;8.714;2023-11-19T09:26:17;32.13;;;7.20;;
3597;SDS011;1813;52.016;8.714;2023-11-19T09:28:51;33.10;;;7.10;;
3597;SDS011;1813;52.016;8.714;2023-11-19T09:31:24;43.10;;;7.20;;
3597;SDS011;1813;52.016;8.714;2023-11-19T09:33:58;31.40;;;6.90;;
3597;SDS011;1813;52.016;8.714;2023-11-19T09:36:31;37.10;;;7.60;;
3597;SDS011;1813;52.016;8.714;2023-11-19T09:39:05;33.30;;;7.77;;
3597;SDS011;1813;52.016;8.714;2023-11-19T09:41:41;34.00;;;6.80;;
3597;SDS011;1813;52.016;8.714;2023-11-19T09:44:15;37.30;;;7.80;;
3597;SDS011;1813;52.016;8.714;2023-11-19T09:46:49;41.40;;;7.90;;
3597;SDS011;1813;52.016;8.714;2023-11-19T09:49:23;32.83;;;7.27;;
3597;SDS011;1813;52.016;8.714;2023-11-19T09:51:58;32.57;;;7.63;;
3597;SDS011;1813;52.016;8.714;2023-11-19T09:54:32;37.97;;;8.07;;
3597;SDS011;1813;52.016;8.714;2023-11-19T09:57:09;35.00;;;7.60;;
3597;SDS011;1813;52.016;8.714;2023-11-19T09:59:45;29.40;;;6.93;;
3597;SDS011;1813;52.016;8.714;2023-11-19T10:02:20;30.73;;;7.50;;
3597;SDS011;1813;52.016;8.714;2023-11-19T10:04:53;33.47;;;6.90;;
3597;SDS011;1813;52.016;8.714;2023-11-19T10:07:28;28.77;;;6.23;;
3597;SDS011;1813;52.016;8.714;2023-11-19T10:10:03;32.93;;;7.90;;
3597;SDS011;1813;52.016;8.714;2023-11-19T10:12:41;38.37;;;8.10;;
3597;SDS011;1813;52.016;8.714;2023-11-19T10:15:17;38.17;;;7.70;;
3597;SDS011;1813;52.016;8.714;2023-11-19T10:17:55;33.47;;;7.23;;
3597;SDS011;1813;52.016;8.714;2023-11-19T10:20:28;33.73;;;7.40;;
3597;SDS011;1813;52.016;8.714;2023-11-19T10:23:02;32.73;;;6.90;;
3597;SDS011;1813;52.016;8.714;2023-11-19T10:25:35;34.43;;;6.97;;
3597;SDS011;1813;52.016;8.714;2023-11-19T10:28:12;31.33;;;5.83;;
3597;SDS011;1813;52.016;8.714;2023-11-19T10:30:49;24.17;;;5.83;;
3597;SDS011;1813;52.016;8.714;2023-11-19T10:33:28;42.90;;;7.57;;
3597;SDS011;1813;52.016;8.714;2023-11-19T10:36:03;24.23;;;6.00;;
3597;SDS011;1813;52.016;8.714;2023-11-19T10:38:37;29.90;;;6.60;;
3597;SDS011;1813;52.016;8.714;2023-11-19T10:41:11;36.27;;;7.27;;
3597;SDS011;1813;52.016;8.714;2023-11-19T10:44:02;36.60;;;6.73;;
3597;SDS011;1813;52.016;8.714;2023-11-19T10:46:36;34.67;;;6.53;;
3597;SDS011;1813;52.016;8.714;2023-11-19T10:49:11;24.80;;;6.33;;
3597;SDS011;1813;52.016;8.714;2023-11-19T10:51:45;35.17;;;6.90;;
3597;SDS011;1813;52.016;8.714;2023-11-19T10:54:19;32.83;;;6.70;;
3597;SDS011;1813;52.016;8.714;2023-11-19T10:56:54;31.53;;;6.53;;
3597;SDS011;1813;52.016;8.714;2023-11-19T10:59:34;35.03;;;6.30;;
3597;SDS011;1813;52.016;8.714;2023-11-19T11:02:10;36.23;;;6.60;;
3597;SDS011;1813;52.016;8.714;2023-11-19T11:04:49;34.90;;;6.97;;
3597;SDS011;1813;52.016;8.714;2023-11-19T11:07:23;34.80;;;6.50;;
3597;SDS011;1813;52.016;8.714;2023-11-19T11:09:58;36.57;;;7.53;;
3597;SDS011;1813;52.016;8.714;2023-11-19T11:12:33;32.63;;;6.93;;
3597;SDS011;1813;52.016;8.714;2023-11-19T11:15:14;32.30;;;6.57;;
3597;SDS011;1813;52.016;8.714;2023-11-19T11:17:48;32.37;;;6.27;;
3597;SDS011;1813;52.016;8.714;2023-11-19T11:20:23;35.50;;;6.53;;
3597;SDS011;1813;52.016;8.714;2023-11-19T11:23:02;33.83;;;6.70;;
3597;SDS011;1813;52.016;8.714;2023-11-19T11:25:52;37.40;;;6.33;;
3597;SDS011;1813;52.016;8.714;2023-11-19T11:28:39;30.77;;;6.60;;
3597;SDS011;1813;52.016;8.714;2023-11-19T11:31:24;32.90;;;7.23;;
3597;SDS011;1813;52.016;8.714;2023-11-19T11:37:17;40.03;;;8.03;;
3597;SDS011;1813;52.016;8.714;2023-11-19T11:39:54;42.37;;;7.83;;
3597;SDS011;1813;52.016;8.714;2023-11-19T11:42:31;36.53;;;6.67;;
3597;SDS011;1813;52.016;8.714;2023-11-19T11:45:08;43.93;;;7.83;;
3597;SDS011;1813;52.016;8.714;2023-11-19T11:50:50;32.07;;;7.17;;
3597;SDS011;1813;52.016;8.714;2023-11-19T11:53:25;38.47;;;7.97;;
3597;SDS011;1813;52.016;8.714;2023-11-19T11:55:59;38.50;;;6.97;;
3597;SDS011;1813;52.016;8.714;2023-11-19T11:58:34;33.73;;;7.00;;
3597;SDS011;1813;52.016;8.714;2023-11-19T12:01:10;28.03;;;6.30;;
3597;SDS011;1813;52.016;8.714;2023-11-19T12:03:50;28.50;;;6.37;;
3597;SDS011;1813;52.016;8.714;2023-11-19T12:06:27;39.40;;;7.70;;
3597;SDS011;1813;52.016;8.714;2023-11-19T12:09:00;31.53;;;7.60;;
3597;SDS011;1813;52.016;8.714;2023-11-19T12:11:37;39.57;;;7.93;;
3597;SDS011;1813;52.016;8.714;2023-11-19T12:14:10;47.03;;;8.80;;
3597;SDS011;1813;52.016;8.714;2023-11-19T12:16:44;35.67;;;7.73;;
3597;SDS011;1813;52.016;8.714;2023-11-19T12:19:18;43.47;;;8.57;;
3597;SDS011;1813;52.016;8.714;2023-11-19T12:21:54;34.80;;;7.60;;
3597;SDS011;1813;52.016;8.714;2023-11-19T12:24:29;35.97;;;8.27;;
3597;SDS011;1813;52.016;8.714;2023-11-19T12:27:04;35.17;;;6.80;;
3597;SDS011;1813;52.016;8.714;2023-11-19T12:29:41;32.47;;;6.90;;
3597;SDS011;1813;52.016;8.714;2023-11-19T12:32:15;41.33;;;7.77;;
3597;SDS011;1813;52.016;8.714;2023-11-19T12:34:48;38.90;;;7.70;;
3597;SDS011;1813;52.016;8.714;2023-11-19T12:37:24;36.50;;;7.10;;
3597;SDS011;1813;52.016;8.714;2023-11-19T12:39:59;40.80;;;7.50;;
3597;SDS011;1813;52.016;8.714;2023-11-19T12:42:35;29.67;;;6.30;;
3597;SDS011;1813;52.016;8.714;2023-11-19T12:45:09;40.67;;;6.87;;
3597;SDS011;1813;52.016;8.714;2023-11-19T12:47:43;33.10;;;6.93;;
3597;SDS011;1813;52.016;8.714;2023-11-19T12:50:18;30.80;;;5.77;;
3597;SDS011;1813;52.016;8.714;2023-11-19T12:53:00;35.07;;;6.30;;
3597;SDS011;1813;52.016;8.714;2023-11-19T12:55:33;24.57;;;5.70;;
3597;SDS011;1813;52.016;8.714;2023-11-19T12:58:06;28.93;;;6.00;;
3597;SDS011;1813;52.016;8.714;2023-11-19T13:00:40;31.80;;;6.10;;
3597;SDS011;1813;52.016;8.714;2023-11-19T13:03:13;31.17;;;6.20;;
3597;SDS011;1813;52.016;8.714;2023-11-19T13:06:03;31.70;;;6.37;;
3597;SDS011;1813;52.016;8.714;2023-11-19T13:08:41;29.80;;;6.60;;
3597;SDS011;1813;52.016;8.714;2023-11-19T13:11:29;34.53;;;6.27;;
3597;SDS011;1813;52.016;8.714;2023-11-19T13:14:03;27.50;;;6.10;;
3597;SDS011;1813;52.016;8.714;2023-11-19T13:16:38;28.07;;;6.13;;
3597;SDS011;1813;52.016;8.714;2023-11-19T13:19:12;28.87;;;6.93;;
3597;SDS011;1813;52.016;8.714;2023-11-19T13:21:46;30.63;;;6.47;;
3597;SDS011;1813;52.016;8.714;2023-11-19T13:24:22;30.03;;;6.57;;
3597;SDS011;1813;52.016;8.714;2023-11-19T13:26:55;29.00;;;6.33;;
3597;SDS011;1813;52.016;8.714;2023-11-19T13:29:29;33.87;;;7.53;;
3597;SDS011;1813;52.016;8.714;2023-11-19T13:32:02;30.43;;;5.90;;
3597;SDS011;1813;52.016;8.714;2023-11-19T13:34:36;31.60;;;6.50;;
3597;SDS011;1813;52.016;8.714;2023-11-19T13:37:10;26.07;;;5.77;;
3597;SDS011;1813;52.016;8.714;2023-11-19T13:39:46;31.27;;;6.47;;
3597;SDS011;1813;52.016;8.714;2023-11-19T13:42:19;35.37;;;6.97;;
3597;SDS011;1813;52.016;8.714;2023-11-19T13:44:53;31.77;;;6.53;;
3597;SDS011;1813;52.016;8.714;2023-11-19T13:47:27;31.20;;;6.83;;
3597;SDS011;1813;52.016;8.714;2023-11-19T13:50:00;28.53;;;6.03;;
3597;SDS011;1813;52.016;8.714;2023-11-19T13:52:36;27.63;;;6.30;;
3597;SDS011;1813;52.016;8.714;2023-11-19T13:55:14;21.30;;;5.50;;
3597;SDS011;1813;52.016;8.714;2023-11-19T13:57:48;28.43;;;6.60;;
3597;SDS011;1813;52.016;8.714;2023-11-19T14:00:21;27.73;;;5.57;;
3597;SDS011;1813;52.016;8.714;2023-11-19T14:02:55;22.73;;;5.70;;
3597;SDS011;1813;52.016;8.714;2023-11-19T14:05:28;27.70;;;6.00;;
3597;SDS011;1813;52.016;8.714;2023-11-19T14:08:02;32.13;;;6.73;;
3597;SDS011;1813;52.016;8.714;2023-11-19T14:10:44;27.97;;;6.30;;
3597;SDS011;1813;52.016;8.714;2023-11-19T14:13:17;33.40;;;5.60;;
3597;SDS011;1813;52.016;8.714;2023-11-19T14:15:50;26.20;;;5.67;;
3597;SDS011;1813;52.016;8.714;2023-11-19T14:18:24;29.37;;;5.80;;
3597;SDS011;1813;52.016;8.714;2023-11-19T14:20:58;32.80;;;6.70;;
3597;SDS011;1813;52.016;8.714;2023-11-19T14:23:33;31.40;;;5.97;;
3597;SDS011;1813;52.016;8.714;2023-11-19T14:26:09;34.70;;;6.50;;
3597;SDS011;1813;52.016;8.714;2023-11-19T14:28:43;27.90;;;5.23;;
3597;SDS011;1813;52.016;8.714;2023-11-19T14:31:17;28.20;;;5.67;;
3597;SDS011;1813;52.016;8.714;2023-11-19T14:33:51;23.97;;;6.17;;
3597;SDS011;1813;52.016;8.714;2023-11-19T14:36:25;35.83;;;5.97;;
3597;SDS011;1813;52.016;8.714;2023-11-19T14:38:59;28.37;;;5.93;;
3597;SDS011;1813;52.016;8.714;2023-11-19T14:41:36;28.60;;;5.07;;
3597;SDS011;1813;52.016;8.714;2023-11-19T14:44:10;29.30;;;5.33;;
3597;SDS011;1813;52.016;8.714;2023-11-19T14:46:43;26.90;;;5.27;;
3597;SDS011;1813;52.016;8.714;2023-11-19T14:49:17;19.33;;;4.50;;
3597;SDS011;1813;52.016;8.714;2023-11-19T14:51:50;28.23;;;5.43;;
3597;SDS011;1813;52.016;8.714;2023-11-19T14:54:24;21.33;;;4.97;;
3597;SDS011;1813;52.016;8.714;2023-11-19T14:57:00;19.80;;;4.80;;
3597;SDS011;1813;52.016;8.714;2023-11-19T14:59:33;25.33;;;5.97;;
3597;SDS011;1813;52.016;8.714;2023-11-19T15:02:07;19.37;;;4.57;;
3597;SDS011;1813;52.016;8.714;2023-11-19T15:04:40;23.07;;;5.20;;
3597;SDS011;1813;52.016;8.714;2023-11-19T15:07:14;21.73;;;5.03;;
3597;SDS011;1813;52.016;8.714;2023-11-19T15:09:47;25.07;;;5.30;;
3597;SDS011;1813;52.016;8.714;2023-11-19T15:12:23;17.33;;;4.40;;
3597;SDS011;1813;52.016;8.714;2023-11-19T15:14:58;23.20;;;5.60;;
3597;SDS011;1813;52.016;8.714;2023-11-19T15:17:31;24.40;;;4.70;;
3597;SDS011;1813;52.016;8.714;2023-11-19T15:20:05;17.40;;;4.60;;
3597;SDS011;1813;52.016;8.714;2023-11-19T15:22:40;21.23;;;5.10;;
3597;SDS011;1813;52.016;8.714;2023-11-19T15:25:13;21.73;;;4.83;;
3597;SDS011;1813;52.016;8.714;2023-11-19T15:27:49;17.50;;;4.60;;
3597;SDS011;1813;52.016;8.714;2023-11-19T15:30:23;18.73;;;5.40;;
3597;SDS011;1813;52.016;8.714;2023-11-19T15:32:56;26.60;;;5.03;;
3597;SDS011;1813;52.016;8.714;2023-11-19T15:35:29;19.60;;;5.30;;
3597;SDS011;1813;52.016;8.714;2023-11-19T15:38:03;29.00;;;5.93;;
3597;SDS011;1813;52.016;8.714;2023-11-19T15:40:39;23.13;;;4.90;;
3597;SDS011;1813;52.016;8.714;2023-11-19T15:43:16;22.67;;;5.13;;
3597;SDS011;1813;52.016;8.714;2023-11-19T15:45:50;26.13;;;5.60;;
3597;SDS011;1813;52.016;8.714;2023-11-19T15:48:23;24.70;;;6.13;;
3597;SDS011;1813;52.016;8.714;2023-11-19T15:50:57;25.73;;;5.10;;
3597;SDS011;1813;52.016;8.714;2023-11-19T15:53:31;24.53;;;5.30;;
3597;SDS011;1813;52.016;8.714;2023-11-19T15:56:04;18.33;;;5.20;;